createdAt,value
2019-05-21T00:03:51.809Z,100701.86
2019-05-21T00:07:54.435Z,100702.52
2019-05-21T00:11:56.541Z,100691.73
2019-05-21T00:15:58.694Z,100690.22
2019-05-21T00:20:00.801Z,100693.08
2019-05-21T00:24:02.817Z,100688.36
2019-05-21T00:28:37.894Z,100679.77
2019-05-21T00:33:16.116Z,100680.13
2019-05-21T00:37:53.828Z,100672.35
2019-05-21T00:42:03.175Z,100679.27
2019-05-21T00:46:05.305Z,100668.62
2019-05-21T00:50:08.735Z,100658.20
2019-05-21T00:54:10.963Z,100653.16
2019-05-21T00:58:13.291Z,100662.25
2019-05-21T01:02:15.538Z,100653.32
2019-05-21T01:06:17.592Z,100659.54
2019-05-21T01:10:20.119Z,100663.25
2019-05-21T01:14:22.390Z,100666.63
2019-05-21T01:18:24.492Z,100658.20
2019-05-21T01:22:26.783Z,100656.34
2019-05-21T01:26:28.822Z,100666.64
2019-05-21T01:30:31.011Z,100666.29
2019-05-21T01:34:33.341Z,100664.94
2019-05-21T01:38:35.708Z,100662.90
2019-05-21T01:42:37.860Z,100661.56
2019-05-21T01:46:41.017Z,100657.00
2019-05-21T01:50:43.193Z,100659.36
2019-05-21T01:54:45.267Z,100652.97
2019-05-21T01:58:47.378Z,100644.19
2019-05-21T02:02:49.490Z,100646.05
2019-05-21T02:06:51.630Z,100649.59
2019-05-21T02:10:55.263Z,100647.44
2019-05-21T02:14:57.413Z,100648.61
2019-05-21T02:18:59.445Z,100637.84
2019-05-21T02:23:01.458Z,100633.63
2019-05-21T02:27:03.643Z,100626.88
2019-05-21T02:31:05.824Z,100635.47
2019-05-21T02:35:08.034Z,100637.33
2019-05-21T02:39:11.177Z,100640.52
2019-05-21T02:43:13.349Z,100647.58
2019-05-21T02:47:15.367Z,100640.16
2019-05-21T02:51:17.470Z,100647.75
2019-05-21T02:55:19.751Z,100644.23
2019-05-21T02:59:21.715Z,100648.77
2019-05-21T03:03:26.854Z,100647.92
2019-05-21T03:07:29.141Z,100659.21
2019-05-21T03:11:31.703Z,100660.07
2019-05-21T03:15:33.880Z,100662.25
2019-05-21T03:19:36.093Z,100664.60
2019-05-21T03:23:38.192Z,100666.82
2019-05-21T03:27:40.333Z,100667.16
2019-05-21T03:31:42.437Z,100671.70
2019-05-21T03:35:44.402Z,100659.39
2019-05-21T03:39:46.510Z,100659.54
2019-05-21T03:43:48.740Z,100660.23
2019-05-21T03:47:51.053Z,100664.27
2019-05-21T03:51:55.568Z,100670.64
2019-05-21T03:55:57.758Z,100683.06
2019-05-21T04:00:01.802Z,100697.13
2019-05-21T04:04:03.950Z,100703.14
2019-05-21T04:08:05.930Z,100701.02
2019-05-21T04:12:09.426Z,100694.22
2019-05-21T04:16:17.779Z,100694.10
2019-05-21T04:20:20.036Z,100693.02
2019-05-21T04:24:22.409Z,100706.18
2019-05-21T04:28:24.542Z,100692.23
2019-05-21T04:32:26.815Z,100681.84
2019-05-21T04:36:29.556Z,100680.01
2019-05-21T04:40:31.557Z,100672.78
2019-05-21T04:44:33.635Z,100668.52
2019-05-21T04:48:35.598Z,100676.53
2019-05-21T04:52:37.617Z,100675.16
2019-05-21T04:56:39.655Z,100674.11
2019-05-21T05:00:41.755Z,100681.11
2019-05-21T05:04:43.918Z,100686.05
2019-05-21T05:08:45.923Z,100677.80
2019-05-21T05:12:48.058Z,100685.17
2019-05-21T05:16:50.077Z,100680.34
2019-05-21T05:20:52.183Z,100689.31
2019-05-21T05:24:54.203Z,100683.19
2019-05-21T05:28:56.268Z,100678.09
2019-05-21T05:32:58.243Z,100676.39
2019-05-21T05:37:00.499Z,100670.75
2019-05-21T05:41:03.439Z,100669.27
2019-05-21T05:45:06.660Z,100668.20
2019-05-21T05:49:14.784Z,100665.32
2019-05-21T05:53:17.302Z,100669.21
2019-05-21T05:57:19.406Z,100674.30
2019-05-21T06:01:21.357Z,100671.78
2019-05-21T06:05:23.251Z,100670.97
2019-05-21T06:09:25.089Z,100672.11
2019-05-21T06:13:27.098Z,100670.19
2019-05-21T06:17:28.860Z,100670.60
2019-05-21T06:21:30.668Z,100669.77
2019-05-21T06:25:32.605Z,100663.48
2019-05-21T06:29:39.383Z,100668.78
2019-05-21T06:33:39.687Z,100670.73
2019-05-21T06:37:41.852Z,100668.21
2019-05-21T06:41:43.997Z,100668.98
2019-05-21T06:45:46.900Z,100673.63
2019-05-21T06:49:49.229Z,100666.08
2019-05-21T06:53:51.172Z,100666.25
2019-05-21T06:57:53.597Z,100667.59
2019-05-21T07:01:55.364Z,100668.13
2019-05-21T07:05:59.289Z,100663.87
2019-05-21T07:10:00.642Z,100661.92
2019-05-21T07:14:03.979Z,100656.05
2019-05-21T07:18:06.172Z,100660.86
2019-05-21T07:22:12.691Z,100662.21
2019-05-21T07:26:12.190Z,100666.34
2019-05-21T07:30:14.946Z,100668.17
2019-05-21T07:34:17.268Z,100666.47
2019-05-21T07:38:19.409Z,100661.56
2019-05-21T07:42:21.634Z,100663.92
2019-05-21T07:46:23.631Z,100657.47
2019-05-21T07:50:25.491Z,100661.48
2019-05-21T07:54:28.203Z,100658.81
2019-05-21T07:58:30.109Z,100664.13
2019-05-21T08:02:31.858Z,100650.44
2019-05-21T08:06:33.636Z,100650.44
2019-05-21T08:10:35.401Z,100656.22
2019-05-21T08:14:37.204Z,100657.37
2019-05-21T08:18:38.998Z,100650.50
2019-05-21T08:22:41.082Z,100655.13
2019-05-21T08:26:42.944Z,100659.75
2019-05-21T08:30:44.732Z,100656.14
2019-05-21T08:34:46.512Z,100664.22
2019-05-21T08:38:48.744Z,100666.34
2019-05-21T08:42:50.527Z,100660.46
2019-05-21T08:46:52.352Z,100652.90
2019-05-21T08:50:54.114Z,100657.23
2019-05-21T08:54:56.737Z,100655.04
2019-05-21T08:58:58.562Z,100651.90
2019-05-21T09:03:00.565Z,100652.71
2019-05-21T09:07:02.316Z,100653.03
2019-05-21T09:11:04.550Z,100653.16
2019-05-21T09:15:11.156Z,100652.91
2019-05-21T09:19:13.120Z,100655.75
2019-05-21T09:23:15.097Z,100650.63
2019-05-21T09:27:17.506Z,100641.31
2019-05-21T09:31:20.021Z,100646.61
2019-05-21T09:35:21.881Z,100639.43
2019-05-21T09:39:23.852Z,100646.01
2019-05-21T09:43:25.678Z,100641.36
2019-05-21T09:47:27.516Z,100639.80
2019-05-21T09:51:29.397Z,100643.98
2019-05-21T09:55:33.885Z,100644.37
2019-05-21T09:59:48.043Z,100643.14
2019-05-21T10:03:55.761Z,100639.91
2019-05-21T10:07:57.582Z,100642.70
2019-05-21T10:11:59.338Z,100643.67
2019-05-21T10:16:01.677Z,100635.17
2019-05-21T10:20:03.773Z,100635.98
2019-05-21T10:24:06.778Z,100642.78
2019-05-21T10:28:09.151Z,100635.70
2019-05-21T10:32:11.120Z,100644.55
2019-05-21T10:36:12.903Z,100638.28
2019-05-21T10:40:20.154Z,100641.36
2019-05-21T10:44:22.411Z,100640.94
2019-05-21T10:48:24.329Z,100632.92
2019-05-21T10:52:26.301Z,100637.39
2019-05-21T10:56:47.272Z,100638.32
2019-05-21T11:00:40.443Z,100628.04
2019-05-21T11:04:56.743Z,100625.44
2019-05-21T11:08:58.495Z,100624.64
2019-05-21T11:13:00.322Z,100623.53
2019-05-21T11:17:02.062Z,100623.16
2019-05-21T11:21:05.836Z,100620.39
2019-05-21T11:25:08.192Z,100618.49
2019-05-21T11:29:10.343Z,100612.16
2019-05-21T11:33:12.217Z,100617.58
2019-05-21T11:37:14.078Z,100607.92
2019-05-21T11:41:16.127Z,100601.30
2019-05-21T11:45:31.704Z,100597.13
2019-05-21T11:49:22.054Z,100594.96
2019-05-21T11:53:23.857Z,100596.91
2019-05-21T11:57:25.631Z,100597.09
2019-05-21T12:01:28.611Z,100597.85
2019-05-21T12:05:30.618Z,100599.45
2019-05-21T12:09:32.486Z,100603.08
2019-05-21T12:13:34.284Z,100602.84
2019-05-21T12:17:36.214Z,100598.69
2019-05-21T12:21:38.086Z,100600.75
2019-05-21T12:25:39.904Z,100595.41
2019-05-21T12:29:41.749Z,100597.31
2019-05-21T12:33:43.516Z,100585.17
2019-05-21T12:37:45.397Z,100579.44
2019-05-21T12:41:48.162Z,100563.72
2019-05-21T12:45:50.956Z,100564.55
2019-05-21T12:49:52.775Z,100554.84
2019-05-21T12:53:55.860Z,100550.99
2019-05-21T12:57:57.994Z,100541.45
2019-05-21T13:02:00.086Z,100537.47
2019-05-21T13:06:02.122Z,100538.20
2019-05-21T13:10:04.440Z,100545.79
2019-05-21T13:14:06.681Z,100548.63
2019-05-21T13:18:09.772Z,100550.94
2019-05-21T13:22:13.305Z,100557.44
2019-05-21T13:26:15.151Z,100558.08
2019-05-21T13:30:17.345Z,100552.83
2019-05-21T13:34:19.227Z,100557.20
2019-05-21T13:38:21.160Z,100551.59
2019-05-21T13:42:22.891Z,100551.35
2019-05-21T13:46:24.866Z,100548.50
2019-05-21T13:50:26.767Z,100548.32
2019-05-21T13:54:28.595Z,100538.72
2019-05-21T13:58:30.380Z,100543.41
2019-05-21T14:02:32.235Z,100546.06
2019-05-21T14:06:34.222Z,100541.95
2019-05-21T14:10:36.950Z,100538.28
2019-05-21T14:14:38.818Z,100547.91
2019-05-21T14:18:40.793Z,100548.90
2019-05-21T14:22:42.538Z,100547.23
2019-05-21T14:26:44.468Z,100528.72
2019-05-21T14:30:46.341Z,100530.12
2019-05-21T14:35:00.771Z,100531.11
2019-05-21T14:38:54.368Z,100525.03
2019-05-21T14:42:59.795Z,100527.22
2019-05-21T14:47:00.328Z,100533.34
2019-05-21T14:51:02.216Z,100537.31
2019-05-21T14:55:04.424Z,100537.16
2019-05-21T14:59:07.071Z,100545.28
2019-05-21T15:03:23.927Z,100549.95
2019-05-21T15:07:12.470Z,100544.73
2019-05-21T15:11:14.223Z,100553.03
2019-05-21T15:15:16.357Z,100553.78
2019-05-21T15:19:18.229Z,100548.27
2019-05-21T15:23:20.909Z,100551.47
2019-05-21T15:27:22.916Z,100553.75
2019-05-21T15:31:24.767Z,100554.30
2019-05-21T15:35:26.539Z,100549.42
2019-05-21T15:39:28.396Z,100554.21
2019-05-21T15:43:30.196Z,100555.20
2019-05-21T15:47:32.010Z,100552.97
2019-05-21T15:51:33.766Z,100547.55
2019-05-21T15:55:36.566Z,100539.97
2019-05-21T15:59:38.461Z,100541.53
2019-05-21T16:03:40.438Z,100545.89
2019-05-21T16:07:42.216Z,100545.14
2019-05-21T16:11:44.179Z,100539.47
2019-05-21T16:15:46.014Z,100535.73
2019-05-21T16:19:47.820Z,100537.52
2019-05-21T16:23:49.751Z,100542.36
2019-05-21T16:27:51.546Z,100549.26
2019-05-21T16:31:53.439Z,100544.14
2019-05-21T16:35:55.290Z,100541.00
2019-05-21T16:39:57.064Z,100546.95
2019-05-21T16:43:59.001Z,100539.31
2019-05-21T16:48:01.886Z,100537.53
2019-05-21T16:52:03.683Z,100534.70
2019-05-21T16:56:05.698Z,100539.41
2019-05-21T17:00:08.706Z,100533.84
2019-05-21T17:04:10.442Z,100540.53
2019-05-21T17:08:12.486Z,100532.59
2019-05-21T17:12:14.354Z,100530.81
2019-05-21T17:16:16.250Z,100527.16
2019-05-21T17:20:18.508Z,100528.82
2019-05-21T17:24:20.407Z,100524.39
2019-05-21T17:28:22.429Z,100524.48
2019-05-21T17:32:25.831Z,100521.17
2019-05-21T17:36:27.585Z,100517.67
2019-05-21T17:40:29.628Z,100509.80
2019-05-21T17:44:31.467Z,100511.64
2019-05-21T17:48:33.331Z,100510.55
2019-05-21T17:52:35.089Z,100502.98
2019-05-21T17:56:36.908Z,100512.45
2019-05-21T18:00:54.836Z,100504.41
2019-05-21T18:04:58.090Z,100496.56
2019-05-21T18:09:00.964Z,100495.93
2019-05-21T18:13:04.755Z,100496.87
2019-05-21T18:17:08.359Z,100497.20
2019-05-21T18:21:11.206Z,100499.63
2019-05-21T18:25:13.287Z,100514.87
2019-05-21T18:29:15.344Z,100525.19
2019-05-21T18:33:17.248Z,100529.55
2019-05-21T18:37:19.742Z,100551.61
2019-05-21T18:41:21.691Z,100560.62
2019-05-21T18:45:23.645Z,100570.86
2019-05-21T18:49:27.718Z,100572.64
2019-05-21T18:53:29.021Z,100581.11
2019-05-21T18:57:31.049Z,100587.63
2019-05-21T19:01:33.103Z,100591.72
2019-05-21T19:05:34.958Z,100598.16
2019-05-21T19:09:37.145Z,100601.19
2019-05-21T19:13:39.039Z,100604.58
2019-05-21T19:17:40.994Z,100594.48
2019-05-21T19:21:42.738Z,100590.88
2019-05-21T19:25:44.650Z,100594.09
2019-05-21T19:29:46.452Z,100599.56
2019-05-21T19:33:48.825Z,100597.70
2019-05-21T19:37:50.607Z,100598.67
2019-05-21T19:41:52.719Z,100595.12
2019-05-21T19:45:54.636Z,100590.03
2019-05-21T19:49:56.455Z,100580.01
2019-05-21T19:53:58.189Z,100575.61
2019-05-21T19:58:00.093Z,100582.47
2019-05-21T20:02:02.211Z,100588.10
2019-05-21T20:06:04.682Z,100582.30
2019-05-21T20:10:07.324Z,100587.37
2019-05-21T20:14:09.239Z,100578.69
2019-05-21T20:18:11.096Z,100577.84
2019-05-21T20:22:13.316Z,100573.05
2019-05-21T20:26:19.133Z,100566.28
2019-05-21T20:30:23.049Z,100558.58
2019-05-21T20:34:25.472Z,100546.17
2019-05-21T20:38:29.036Z,100542.63
2019-05-21T20:42:32.290Z,100541.98
2019-05-21T20:46:34.517Z,100534.62
2019-05-21T20:50:38.346Z,100525.86
2019-05-21T20:54:40.920Z,100516.13
2019-05-21T20:58:42.992Z,100511.63
2019-05-21T21:02:44.886Z,100504.64
2019-05-21T21:06:47.487Z,100504.91
2019-05-21T21:10:49.298Z,100505.38
2019-05-21T21:14:52.305Z,100503.28
2019-05-21T21:18:54.130Z,100500.47
2019-05-21T21:22:56.224Z,100500.56
2019-05-21T21:26:58.214Z,100504.73
2019-05-21T21:31:00.361Z,100505.63
2019-05-21T21:35:02.363Z,100508.63
2019-05-21T21:39:06.539Z,100507.67
2019-05-21T21:43:08.613Z,100504.88
2019-05-21T21:47:11.612Z,100499.50
2019-05-21T21:51:13.785Z,100498.63
2019-05-21T21:55:15.940Z,100496.21
2019-05-21T21:59:17.811Z,100496.47
2019-05-21T22:03:21.342Z,100499.20
2019-05-21T22:07:24.537Z,100499.95
2019-05-21T22:11:26.349Z,100501.87
2019-05-21T22:15:28.613Z,100510.99
2019-05-21T22:19:31.191Z,100510.86
2019-05-21T22:23:33.161Z,100514.08
2019-05-21T22:27:34.913Z,100509.71
2019-05-21T22:31:36.747Z,100517.07
2019-05-21T22:35:38.570Z,100517.08
2019-05-21T22:39:42.294Z,100518.59
2019-05-21T22:43:44.164Z,100513.69
2019-05-21T22:47:46.315Z,100516.37
2019-05-21T22:51:48.415Z,100519.55
2019-05-21T22:55:50.213Z,100513.18
2019-05-21T22:59:52.103Z,100509.11
2019-05-21T23:03:54.366Z,100515.48
2019-05-21T23:07:56.492Z,100516.34
2019-05-21T23:11:58.317Z,100512.61
2019-05-21T23:16:00.944Z,100506.71
2019-05-21T23:20:06.847Z,100497.80
2019-05-21T23:24:15.762Z,100502.02
2019-05-21T23:28:17.841Z,100493.77
2019-05-21T23:32:20.156Z,100492.23
2019-05-21T23:36:22.271Z,100491.42
2019-05-21T23:40:24.527Z,100492.77
2019-05-21T23:44:26.567Z,100488.42
2019-05-21T23:48:28.726Z,100481.70
2019-05-21T23:52:31.212Z,100478.34
2019-05-21T23:56:33.185Z,100471.42
